Costa Victoria — IBLC — position and weather

sailwx.info

Track history (hours):
 
Tides and Currents Weather Stations Pressure Air Temp Water Temp Dewpoint Dewpoint Depression Visibility Wind Speed Wind Dir Waves Ship Positions

Costa Victoria

Last reported at 2018-Apr-19 18:15 UTC. Time now 2018-Apr-20 14:05 UTC.
Position N 39°23' E 002°20'.

Length 252 m; draft 8.2 m.

Type: Passenger vessel. MMSI: 247109000.

Date/timePositionNaut miles runAvg speedWind from/ knotsBaromVisibWave heightAir tempDewpointWater temp
2018-Apr-19 18:15N 39°23' E 002°20'310.8
2018-Apr-19 18:00N 39°23' E 002°23'510.9
2018-Apr-19 17:30N 39°23' E 002°31'510.7
2018-Apr-19 17:00N 39°27' E 002°36'611.0
2018-Apr-19 16:30N 39°32' E 002°39'2 3.9
2018-Apr-19 15:59N 39°33' E 002°38'0 0.0
2018-Apr-19 15:29N 39°33' E 002°38'0 0.0
2018-Apr-19 14:59N 39°33' E 002°38'0 0.0
2018-Apr-19 14:29N 39°33' E 002°38'0 0.0
2018-Apr-19 13:59N 39°33' E 002°38'0 0.0
2018-Apr-19 13:29N 39°33' E 002°38'0 0.0
2018-Apr-19 12:59N 39°33' E 002°38'0 0.0
2018-Apr-19 12:29N 39°33' E 002°38'0 0.0
2018-Apr-19 11:59N 39°33' E 002°38'0 0.0
2018-Apr-19 11:29N 39°33' E 002°38'0 0.0
2018-Apr-19 10:59N 39°33' E 002°38'0 0.0
2018-Apr-19 10:29N 39°33' E 002°38'0 0.0
2018-Apr-19 09:59N 39°33' E 002°38'0 0.0
2018-Apr-19 09:29N 39°33' E 002°38'0 0.0
2018-Apr-19 08:59N 39°33' E 002°38'0 0.0
2018-Apr-19 08:29N 39°33' E 002°38'0 0.0
2018-Apr-19 07:59N 39°33' E 002°38'0 0.0
2018-Apr-19 07:29N 39°33' E 002°38'0 0.0
2018-Apr-19 06:59N 39°33' E 002°38'0 0.0
2018-Apr-19 06:29N 39°33' E 002°38'0 0.0
2018-Apr-19 05:59N 39°33' E 002°38'1 1.0
2018-Apr-19 05:30N 39°33' E 002°39'3 6.4
2018-Apr-19 05:00N 39°30' E 002°37'5 9.7
2018-Apr-19 04:30N 39°27' E 002°33'510.2
2018-Apr-19 04:00N 39°26' E 002°27'611.3
2018-Apr-19 03:30N 39°29' E 002°21'20 7.8
2018-Apr-19 00:58N 39°48' E 002°28'510.1
2018-Apr-19 00:30N 39°50' E 002°33'5 9.6
2018-Apr-19 00:00N 39°53' E 002°38'5 9.9
2018-Apr-18 23:29N 39°56' E 002°44'1110.5
2018-Apr-18 22:24N 40°03' E 002°56'388 9.0
2018-Apr-17 03:03N 42°08' E 011°04'218.6
2018-Apr-17 02:57N 42°08' E 011°01'818.5
2018-Apr-17 02:30N 42°09' E 010°50'1019.8
2018-Apr-17 02:00N 42°11' E 010°37'1019.8
2018-Apr-17 01:30N 42°12' E 010°24'1019.9
2018-Apr-17 01:00N 42°14' E 010°11'1019.9
2018-Apr-17 00:30N 42°17' E 009°58'1019.9
2018-Apr-16 23:59N 42°26' E 009°53'1020.0
2018-Apr-16 23:29N 42°36' E 009°48'920.0
2018-Apr-16 23:00N 42°44' E 009°43'1119.6
2018-Apr-16 22:26N 42°55' E 009°38'819.9
2018-Apr-16 22:00N 43°03' E 009°35'1019.9
2018-Apr-16 21:30N 43°13' E 009°32'1020.3
2018-Apr-16 21:00N 43°23' E 009°30'1019.9
2018-Apr-16 20:30N 43°32' E 009°36'1020.1
2018-Apr-16 20:00N 43°41' E 009°42'1020.1
2018-Apr-16 19:30N 43°50' E 009°48'1019.6
2018-Apr-16 19:00N 43°59' E 009°53'713.6
2018-Apr-16 18:30N 44°06' E 009°51'1 1.5
2018-Apr-16 17:58N 44°06' E 009°50'0 0.0
2018-Apr-16 17:28N 44°06' E 009°50'0 0.0
2018-Apr-16 16:58N 44°06' E 009°50'0 0.0
2018-Apr-16 16:25N 44°06' E 009°50'0 0.0
2018-Apr-16 15:58N 44°06' E 009°50'0 0.0
2018-Apr-16 15:28N 44°06' E 009°50'0 0.0
2018-Apr-16 14:58N 44°06' E 009°50'0 0.0
2018-Apr-16 14:28N 44°06' E 009°50'0 0.0
2018-Apr-16 13:58N 44°06' E 009°50'0 0.0
2018-Apr-16 13:28N 44°06' E 009°50'0 0.0
2018-Apr-16 12:58N 44°06' E 009°50'0 0.0
2018-Apr-16 12:28N 44°06' E 009°50'0 0.0
2018-Apr-16 11:58N 44°06' E 009°50'0 0.0
2018-Apr-16 11:28N 44°06' E 009°50'0 0.0
2018-Apr-16 10:58N 44°06' E 009°50'0 0.0
2018-Apr-16 10:28N 44°06' E 009°50'0 0.0
2018-Apr-16 09:58N 44°06' E 009°50'0 0.0
2018-Apr-16 09:28N 44°06' E 009°50'0 0.0
2018-Apr-16 08:58N 44°06' E 009°50'0 0.0
2018-Apr-16 08:28N 44°06' E 009°50'0 0.0
2018-Apr-16 07:58N 44°06' E 009°50'0 0.0
2018-Apr-16 07:28N 44°06' E 009°50'0 0.0
2018-Apr-16 06:58N 44°06' E 009°50'0 0.0
2018-Apr-16 06:28N 44°06' E 009°50'0 0.0
2018-Apr-16 05:58N 44°06' E 009°50'0 0.0
2018-Apr-16 05:28N 44°06' E 009°50'0 0.0
2018-Apr-16 04:58N 44°06' E 009°50'0 0.3
2018-Apr-16 04:30N 44°06' E 009°50'3 6.3
2018-Apr-16 04:00N 44°03' E 009°52'5 9.8
2018-Apr-16 03:30N 43°60' E 009°56'510.6
2018-Apr-16 03:00N 43°55' E 009°55'510.1
2018-Apr-16 02:30N 43°50' E 009°53'5 9.6
2018-Apr-16 02:00N 43°47' E 009°48'5 9.1
2018-Apr-16 01:30N 43°44' E 009°43'5 9.7
2018-Apr-16 01:00N 43°44' E 009°36'5 9.9
2018-Apr-16 00:30N 43°44' E 009°29'510.1
2018-Apr-16 00:00N 43°44' E 009°22'5 9.6
2018-Apr-15 23:30N 43°44' E 009°16'5 9.3
2018-Apr-15 23:00N 43°44' E 009°09'4 8.7
2018-Apr-15 22:30N 43°45' E 009°04'510.2
2018-Apr-15 22:00N 43°50' E 008°60'510.1
2018-Apr-15 21:30N 43°54' E 008°56'510.3
2018-Apr-15 21:00N 43°58' E 008°52'510.6
2018-Apr-15 20:30N 44°02' E 008°47'611.0
2018-Apr-15 20:00N 44°07' E 008°43'510.6
2018-Apr-15 19:30N 44°11' E 008°39'510.3
2018-Apr-15 19:00N 44°15' E 008°34'5 9.3
2018-Apr-15 18:30N 44°19' E 008°30'1 1.6
2018-Apr-15 18:00N 44°19' E 008°29'0 0.0
2018-Apr-15 17:30N 44°19' E 008°29'0 0.0
2018-Apr-15 17:00N 44°19' E 008°29'0 0.0
2018-Apr-15 16:30N 44°19' E 008°29'0 0.0
2018-Apr-15 16:00N 44°19' E 008°29'0 0.0
2018-Apr-15 15:30N 44°19' E 008°29'0 0.0
2018-Apr-15 15:00N 44°19' E 008°29'0 0.0
2018-Apr-15 14:30N 44°19' E 008°29'0 0.0
2018-Apr-15 14:00N 44°19' E 008°29'0 0.0
2018-Apr-15 13:30N 44°19' E 008°29'0 0.0
2018-Apr-15 13:00N 44°19' E 008°29'0 0.0
2018-Apr-15 12:30N 44°19' E 008°29'0 0.0
2018-Apr-15 11:57N 44°19' E 008°29'0 0.0
2018-Apr-15 11:30N 44°19' E 008°29'0 0.0
2018-Apr-15 11:00N 44°19' E 008°29'0 0.0
2018-Apr-15 10:30N 44°19' E 008°29'0 0.0
2018-Apr-15 10:00N 44°19' E 008°29'0 0.0
2018-Apr-15 09:30N 44°19' E 008°29'0 0.0
2018-Apr-15 09:00N 44°19' E 008°29'0 0.0
2018-Apr-15 08:30N 44°19' E 008°29'0 0.0
2018-Apr-15 08:00N 44°19' E 008°29'0 0.0
2018-Apr-15 07:30N 44°19' E 008°29'0 0.0
2018-Apr-15 07:00N 44°19' E 008°29'0 0.0
2018-Apr-15 06:30N 44°19' E 008°29'2 3.1
2018-Apr-15 06:00N 44°18' E 008°31'713.4
2018-Apr-15 05:31N 44°12' E 008°30'815.2
2018-Apr-15 05:00N 44°05' E 008°26'713.8
2018-Apr-15 04:30N 43°58' E 008°22'713.6
2018-Apr-15 04:00N 43°52' E 008°18'612.8
2018-Apr-15 03:30N 43°48' E 008°11'713.6
2018-Apr-15 03:00N 43°44' E 008°04'913.7
2018-Apr-15 02:21N 43°39' E 007°53'614.0
2018-Apr-15 01:55N 43°36' E 007°46'614.1
2018-Apr-15 01:30N 43°33' E 007°39'714.2
2018-Apr-15 01:01N 43°29' E 007°32'713.8
2018-Apr-15 00:30N 43°24' E 007°24'713.8
2018-Apr-15 00:00N 43°20' E 007°17'714.4
2018-Apr-14 23:30N 43°16' E 007°09'714.8
2018-Apr-14 23:00N 43°11' E 007°01'1114.6
2018-Apr-14 22:17N 43°05' E 006°49'6713.4
2018-Apr-14 17:17N 43°10' E 005°18'516.6
2018-Apr-14 17:00N 43°15' E 005°16'713.4
2018-Apr-14 16:30N 43°21' E 005°19'1 0.1
2018-Apr-14 06:18N 43°20' E 005°20'2 7.1
2018-Apr-14 06:00N 43°21' E 005°17'5 9.9
2018-Apr-14 05:30N 43°17' E 005°12'612.7
2018-Apr-14 05:00N 43°11' E 005°10'713.7
2018-Apr-14 04:31N 43°06' E 005°03'815.8
2018-Apr-14 04:00N 43°01' E 004°56'14618.1
2018-Apr-13 19:57N 41°20' E 002°32'818.3
2018-Apr-13 19:30N 41°15' E 002°24'917.9
2018-Apr-13 19:00N 41°11' E 002°14'918.3
2018-Apr-13 18:30N 41°08' E 002°02'918.2
2018-Apr-13 18:00N 41°06' E 001°50'918.2
2018-Apr-13 17:30N 41°05' E 001°38'106 4.6
2018-Apr-12 18:20N 39°23' E 002°20'410.6
2018-Apr-12 18:00N 39°23' E 002°25'510.6
2018-Apr-12 17:30N 39°23' E 002°32'510.8
2018-Apr-12 17:00N 39°27' E 002°36'510.9
2018-Apr-12 16:30N 39°32' E 002°39'1 2.5
2018-Apr-12 15:58N 39°33' E 002°38'0 0.0
2018-Apr-12 15:28N 39°33' E 002°38'0 0.0
2018-Apr-12 14:55N 39°33' E 002°38'0 0.0
2018-Apr-12 14:28N 39°33' E 002°38'0 0.0
2018-Apr-12 13:58N 39°33' E 002°38'0 0.0
2018-Apr-12 13:28N 39°33' E 002°38'0 0.0
2018-Apr-12 12:58N 39°33' E 002°38'0 0.0
2018-Apr-12 12:28N 39°33' E 002°38'0 0.0
2018-Apr-12 11:58N 39°33' E 002°38'0 0.0
2018-Apr-12 11:28N 39°33' E 002°38'0 0.0
2018-Apr-12 10:58N 39°33' E 002°38'0 0.0
2018-Apr-12 10:28N 39°33' E 002°38'0 0.0
2018-Apr-12 09:58N 39°33' E 002°38'0 0.0
2018-Apr-12 09:28N 39°33' E 002°38'0 0.0
2018-Apr-12 08:58N 39°33' E 002°38'0 0.0
2018-Apr-12 08:28N 39°33' E 002°38'0 0.0
2018-Apr-12 07:58N 39°33' E 002°38'0 0.0
2018-Apr-12 07:28N 39°33' E 002°38'0 0.0
2018-Apr-12 06:58N 39°33' E 002°38'0 0.0
2018-Apr-12 06:28N 39°33' E 002°38'0 0.0
2018-Apr-12 06:00N 39°33' E 002°38'1 2.6
2018-Apr-12 05:31N 39°33' E 002°39'3 6.1
2018-Apr-12 05:00N 39°30' E 002°37'510.4
2018-Apr-12 04:30N 39°26' E 002°33'510.5
2018-Apr-12 04:00N 39°26' E 002°26'611.1
2018-Apr-12 03:30N 39°29' E 002°20'19 8.3
2018-Apr-12 01:09N 39°48' E 002°28'410.8
2018-Apr-12 00:49N 39°50' E 002°32'310.7
2018-Apr-12 00:30N 39°52' E 002°36'610.5
2018-Apr-11 23:58N 39°55' E 002°41'510.2
2018-Apr-11 23:27N 39°58' E 002°47'368 8.0
2018-Apr-10 01:20N 42°12' E 010°22'6617.6
2018-Apr-09 21:35N 43°08' E 009°33'120.6
2018-Apr-09 21:30N 43°09' E 009°33'1020.5
2018-Apr-09 21:00N 43°19' E 009°29'1019.5
2018-Apr-09 20:30N 43°28' E 009°33'1020.1
2018-Apr-09 20:00N 43°37' E 009°39'1019.8
2018-Apr-09 19:30N 43°46' E 009°45'1019.9
2018-Apr-09 19:00N 43°55' E 009°52'917.1
2018-Apr-09 18:30N 44°04' E 009°51'  
Track history (hours):
 
Tides and Currents Weather Stations Pressure Air Temp Water Temp Dewpoint Dewpoint Depression Visibility Wind Speed Wind Dir Waves Ship Positions

Costa Victoria

Last reported at 2018-Apr-19 18:15 UTC. Time now 2018-Apr-20 14:05 UTC.
Position N 39°23' E 002°20'.

Length 252 m; draft 8.2 m.

Type: Passenger vessel. MMSI: 247109000.

Date/timePositionNaut miles runAvg speedWind from/ knotsBaromVisibWave heightAir tempDewpointWater temp
2018-Apr-19 18:15N 39°23' E 002°20'310.8
2018-Apr-19 18:00N 39°23' E 002°23'510.9
2018-Apr-19 17:30N 39°23' E 002°31'510.7
2018-Apr-19 17:00N 39°27' E 002°36'611.0
2018-Apr-19 16:30N 39°32' E 002°39'2 3.9
2018-Apr-19 15:59N 39°33' E 002°38'0 0.0
2018-Apr-19 15:29N 39°33' E 002°38'0 0.0
2018-Apr-19 14:59N 39°33' E 002°38'0 0.0
2018-Apr-19 14:29N 39°33' E 002°38'0 0.0
2018-Apr-19 13:59N 39°33' E 002°38'0 0.0
2018-Apr-19 13:29N 39°33' E 002°38'0 0.0
2018-Apr-19 12:59N 39°33' E 002°38'0 0.0
2018-Apr-19 12:29N 39°33' E 002°38'0 0.0
2018-Apr-19 11:59N 39°33' E 002°38'0 0.0
2018-Apr-19 11:29N 39°33' E 002°38'0 0.0
2018-Apr-19 10:59N 39°33' E 002°38'0 0.0
2018-Apr-19 10:29N 39°33' E 002°38'0 0.0
2018-Apr-19 09:59N 39°33' E 002°38'0 0.0
2018-Apr-19 09:29N 39°33' E 002°38'0 0.0
2018-Apr-19 08:59N 39°33' E 002°38'0 0.0
2018-Apr-19 08:29N 39°33' E 002°38'0 0.0
2018-Apr-19 07:59N 39°33' E 002°38'0 0.0
2018-Apr-19 07:29N 39°33' E 002°38'0 0.0
2018-Apr-19 06:59N 39°33' E 002°38'0 0.0
2018-Apr-19 06:29N 39°33' E 002°38'0 0.0
2018-Apr-19 05:59N 39°33' E 002°38'1 1.0
2018-Apr-19 05:30N 39°33' E 002°39'3 6.4
2018-Apr-19 05:00N 39°30' E 002°37'5 9.7
2018-Apr-19 04:30N 39°27' E 002°33'510.2
2018-Apr-19 04:00N 39°26' E 002°27'611.3
2018-Apr-19 03:30N 39°29' E 002°21'20 7.8
2018-Apr-19 00:58N 39°48' E 002°28'510.1
2018-Apr-19 00:30N 39°50' E 002°33'5 9.6
2018-Apr-19 00:00N 39°53' E 002°38'5 9.9
2018-Apr-18 23:29N 39°56' E 002°44'1110.5
2018-Apr-18 22:24N 40°03' E 002°56'388 9.0
2018-Apr-17 03:03N 42°08' E 011°04'218.6
2018-Apr-17 02:57N 42°08' E 011°01'818.5
2018-Apr-17 02:30N 42°09' E 010°50'1019.8
2018-Apr-17 02:00N 42°11' E 010°37'1019.8
2018-Apr-17 01:30N 42°12' E 010°24'1019.9
2018-Apr-17 01:00N 42°14' E 010°11'1019.9
2018-Apr-17 00:30N 42°17' E 009°58'1019.9
2018-Apr-16 23:59N 42°26' E 009°53'1020.0
2018-Apr-16 23:29N 42°36' E 009°48'920.0
2018-Apr-16 23:00N 42°44' E 009°43'1119.6
2018-Apr-16 22:26N 42°55' E 009°38'819.9
2018-Apr-16 22:00N 43°03' E 009°35'1019.9
2018-Apr-16 21:30N 43°13' E 009°32'1020.3
2018-Apr-16 21:00N 43°23' E 009°30'1019.9
2018-Apr-16 20:30N 43°32' E 009°36'1020.1
2018-Apr-16 20:00N 43°41' E 009°42'1020.1
2018-Apr-16 19:30N 43°50' E 009°48'1019.6
2018-Apr-16 19:00N 43°59' E 009°53'713.6
2018-Apr-16 18:30N 44°06' E 009°51'1 1.5
2018-Apr-16 17:58N 44°06' E 009°50'0 0.0
2018-Apr-16 17:28N 44°06' E 009°50'0 0.0
2018-Apr-16 16:58N 44°06' E 009°50'0 0.0
2018-Apr-16 16:25N 44°06' E 009°50'0 0.0
2018-Apr-16 15:58N 44°06' E 009°50'0 0.0
2018-Apr-16 15:28N 44°06' E 009°50'0 0.0
2018-Apr-16 14:58N 44°06' E 009°50'0 0.0
2018-Apr-16 14:28N 44°06' E 009°50'0 0.0
2018-Apr-16 13:58N 44°06' E 009°50'0 0.0
2018-Apr-16 13:28N 44°06' E 009°50'0 0.0
2018-Apr-16 12:58N 44°06' E 009°50'0 0.0
2018-Apr-16 12:28N 44°06' E 009°50'0 0.0
2018-Apr-16 11:58N 44°06' E 009°50'0 0.0
2018-Apr-16 11:28N 44°06' E 009°50'0 0.0
2018-Apr-16 10:58N 44°06' E 009°50'0 0.0
2018-Apr-16 10:28N 44°06' E 009°50'0 0.0
2018-Apr-16 09:58N 44°06' E 009°50'0 0.0
2018-Apr-16 09:28N 44°06' E 009°50'0 0.0
2018-Apr-16 08:58N 44°06' E 009°50'0 0.0
2018-Apr-16 08:28N 44°06' E 009°50'0 0.0
2018-Apr-16 07:58N 44°06' E 009°50'0 0.0
2018-Apr-16 07:28N 44°06' E 009°50'0 0.0
2018-Apr-16 06:58N 44°06' E 009°50'0 0.0
2018-Apr-16 06:28N 44°06' E 009°50'0 0.0
2018-Apr-16 05:58N 44°06' E 009°50'0 0.0
2018-Apr-16 05:28N 44°06' E 009°50'0 0.0
2018-Apr-16 04:58N 44°06' E 009°50'0 0.3
2018-Apr-16 04:30N 44°06' E 009°50'3 6.3
2018-Apr-16 04:00N 44°03' E 009°52'5 9.8
2018-Apr-16 03:30N 43°60' E 009°56'510.6
2018-Apr-16 03:00N 43°55' E 009°55'510.1
2018-Apr-16 02:30N 43°50' E 009°53'5 9.6
2018-Apr-16 02:00N 43°47' E 009°48'5 9.1
2018-Apr-16 01:30N 43°44' E 009°43'5 9.7
2018-Apr-16 01:00N 43°44' E 009°36'5 9.9
2018-Apr-16 00:30N 43°44' E 009°29'510.1
2018-Apr-16 00:00N 43°44' E 009°22'5 9.6
2018-Apr-15 23:30N 43°44' E 009°16'5 9.3
2018-Apr-15 23:00N 43°44' E 009°09'4 8.7
2018-Apr-15 22:30N 43°45' E 009°04'510.2
2018-Apr-15 22:00N 43°50' E 008°60'510.1
2018-Apr-15 21:30N 43°54' E 008°56'510.3
2018-Apr-15 21:00N 43°58' E 008°52'510.6
2018-Apr-15 20:30N 44°02' E 008°47'611.0
2018-Apr-15 20:00N 44°07' E 008°43'510.6
2018-Apr-15 19:30N 44°11' E 008°39'510.3
2018-Apr-15 19:00N 44°15' E 008°34'5 9.3
2018-Apr-15 18:30N 44°19' E 008°30'1 1.6
2018-Apr-15 18:00N 44°19' E 008°29'0 0.0
2018-Apr-15 17:30N 44°19' E 008°29'0 0.0
2018-Apr-15 17:00N 44°19' E 008°29'0 0.0
2018-Apr-15 16:30N 44°19' E 008°29'0 0.0
2018-Apr-15 16:00N 44°19' E 008°29'0 0.0
2018-Apr-15 15:30N 44°19' E 008°29'0 0.0
2018-Apr-15 15:00N 44°19' E 008°29'0 0.0
2018-Apr-15 14:30N 44°19' E 008°29'0 0.0
2018-Apr-15 14:00N 44°19' E 008°29'0 0.0
2018-Apr-15 13:30N 44°19' E 008°29'0 0.0
2018-Apr-15 13:00N 44°19' E 008°29'0 0.0
2018-Apr-15 12:30N 44°19' E 008°29'0 0.0
2018-Apr-15 11:57N 44°19' E 008°29'0 0.0
2018-Apr-15 11:30N 44°19' E 008°29'0 0.0
2018-Apr-15 11:00N 44°19' E 008°29'0 0.0
2018-Apr-15 10:30N 44°19' E 008°29'0 0.0
2018-Apr-15 10:00N 44°19' E 008°29'0 0.0
2018-Apr-15 09:30N 44°19' E 008°29'0 0.0
2018-Apr-15 09:00N 44°19' E 008°29'0 0.0
2018-Apr-15 08:30N 44°19' E 008°29'0 0.0
2018-Apr-15 08:00N 44°19' E 008°29'0 0.0
2018-Apr-15 07:30N 44°19' E 008°29'0 0.0
2018-Apr-15 07:00N 44°19' E 008°29'0 0.0
2018-Apr-15 06:30N 44°19' E 008°29'2 3.1
2018-Apr-15 06:00N 44°18' E 008°31'713.4
2018-Apr-15 05:31N 44°12' E 008°30'815.2
2018-Apr-15 05:00N 44°05' E 008°26'713.8
2018-Apr-15 04:30N 43°58' E 008°22'713.6
2018-Apr-15 04:00N 43°52' E 008°18'612.8
2018-Apr-15 03:30N 43°48' E 008°11'713.6
2018-Apr-15 03:00N 43°44' E 008°04'913.7
2018-Apr-15 02:21N 43°39' E 007°53'614.0
2018-Apr-15 01:55N 43°36' E 007°46'614.1
2018-Apr-15 01:30N 43°33' E 007°39'714.2
2018-Apr-15 01:01N 43°29' E 007°32'713.8
2018-Apr-15 00:30N 43°24' E 007°24'713.8
2018-Apr-15 00:00N 43°20' E 007°17'714.4
2018-Apr-14 23:30N 43°16' E 007°09'714.8
2018-Apr-14 23:00N 43°11' E 007°01'1114.6
2018-Apr-14 22:17N 43°05' E 006°49'6713.4
2018-Apr-14 17:17N 43°10' E 005°18'516.6
2018-Apr-14 17:00N 43°15' E 005°16'713.4
2018-Apr-14 16:30N 43°21' E 005°19'1 0.1
2018-Apr-14 06:18N 43°20' E 005°20'2 7.1
2018-Apr-14 06:00N 43°21' E 005°17'5 9.9
2018-Apr-14 05:30N 43°17' E 005°12'612.7
2018-Apr-14 05:00N 43°11' E 005°10'713.7
2018-Apr-14 04:31N 43°06' E 005°03'815.8
2018-Apr-14 04:00N 43°01' E 004°56'14618.1
2018-Apr-13 19:57N 41°20' E 002°32'818.3
2018-Apr-13 19:30N 41°15' E 002°24'917.9
2018-Apr-13 19:00N 41°11' E 002°14'918.3
2018-Apr-13 18:30N 41°08' E 002°02'918.2
2018-Apr-13 18:00N 41°06' E 001°50'918.2
2018-Apr-13 17:30N 41°05' E 001°38'106 4.6
2018-Apr-12 18:20N 39°23' E 002°20'410.6
2018-Apr-12 18:00N 39°23' E 002°25'510.6
2018-Apr-12 17:30N 39°23' E 002°32'510.8
2018-Apr-12 17:00N 39°27' E 002°36'510.9
2018-Apr-12 16:30N 39°32' E 002°39'1 2.5
2018-Apr-12 15:58N 39°33' E 002°38'0 0.0
2018-Apr-12 15:28N 39°33' E 002°38'0 0.0
2018-Apr-12 14:55N 39°33' E 002°38'0 0.0
2018-Apr-12 14:28N 39°33' E 002°38'0 0.0
2018-Apr-12 13:58N 39°33' E 002°38'0 0.0
2018-Apr-12 13:28N 39°33' E 002°38'0 0.0
2018-Apr-12 12:58N 39°33' E 002°38'0 0.0
2018-Apr-12 12:28N 39°33' E 002°38'0 0.0
2018-Apr-12 11:58N 39°33' E 002°38'0 0.0
2018-Apr-12 11:28N 39°33' E 002°38'0 0.0
2018-Apr-12 10:58N 39°33' E 002°38'0 0.0
2018-Apr-12 10:28N 39°33' E 002°38'0 0.0
2018-Apr-12 09:58N 39°33' E 002°38'0 0.0
2018-Apr-12 09:28N 39°33' E 002°38'0 0.0
2018-Apr-12 08:58N 39°33' E 002°38'0 0.0
2018-Apr-12 08:28N 39°33' E 002°38'0 0.0
2018-Apr-12 07:58N 39°33' E 002°38'0 0.0
2018-Apr-12 07:28N 39°33' E 002°38'0 0.0
2018-Apr-12 06:58N 39°33' E 002°38'0 0.0
2018-Apr-12 06:28N 39°33' E 002°38'0 0.0
2018-Apr-12 06:00N 39°33' E 002°38'1 2.6
2018-Apr-12 05:31N 39°33' E 002°39'3 6.1
2018-Apr-12 05:00N 39°30' E 002°37'510.4
2018-Apr-12 04:30N 39°26' E 002°33'510.5
2018-Apr-12 04:00N 39°26' E 002°26'611.1
2018-Apr-12 03:30N 39°29' E 002°20'19 8.3
2018-Apr-12 01:09N 39°48' E 002°28'410.8
2018-Apr-12 00:49N 39°50' E 002°32'310.7
2018-Apr-12 00:30N 39°52' E 002°36'610.5
2018-Apr-11 23:58N 39°55' E 002°41'510.2
2018-Apr-11 23:27N 39°58' E 002°47'368 8.0
2018-Apr-10 01:20N 42°12' E 010°22'6617.6
2018-Apr-09 21:35N 43°08' E 009°33'120.6
2018-Apr-09 21:30N 43°09' E 009°33'1020.5
2018-Apr-09 21:00N 43°19' E 009°29'1019.5
2018-Apr-09 20:30N 43°28' E 009°33'1020.1
2018-Apr-09 20:00N 43°37' E 009°39'1019.8
2018-Apr-09 19:30N 43°46' E 009°45'1019.9
2018-Apr-09 19:00N 43°55' E 009°52'917.1
2018-Apr-09 18:30N 44°04' E 009°51'  

Dump ship's entire track history